Time;durP1;ratioP1;P1;durP2;ratioP2;P2;SDS_P1;SDS_P2;PMS_P1;PMS_P2;Temp;Humidity;BMP_temperature;BMP_pressure;BME280_temperature;BME280_humidity;BME280_pressure;Samples;Min_cycle;Max_cycle;Signal;HPM_P1;HPM_P2
2022/08/09 00:01:14;;;;;;;4.47;2.40;;;;;;;16.07;100.00;101526.91;5089156;28;20099;-80
2022/08/09 00:03:40;;;;;;;4.47;2.08;;;;;;;16.19;100.00;101544.78;5086409;28;20020;-77
2022/08/09 00:06:05;;;;;;;5.07;2.65;;;;;;;16.02;100.00;101509.56;5039854;28;20138;-77
2022/08/09 00:08:31;;;;;;;4.05;2.25;;;;;;;16.00;100.00;101506.13;5094698;28;20027;-76
2022/08/09 00:10:58;;;;;;;5.70;2.60;;;;;;;16.05;100.00;101523.50;5094676;28;20032;-77
2022/08/09 00:13:23;;;;;;;3.42;1.95;;;;;;;16.16;100.00;101542.31;5057863;28;20127;-75
2022/08/09 00:15:48;;;;;;;5.53;2.40;;;;;;;16.20;100.00;101545.66;5086568;28;20024;-75
2022/08/09 00:18:14;;;;;;;4.80;2.53;;;;;;;15.58;100.00;101451.84;5074981;28;20025;-76
2022/08/09 00:20:39;;;;;;;4.75;2.22;;;;;;;16.08;100.00;101539.25;5075356;28;20056;-75
2022/08/09 00:23:04;;;;;;;3.95;2.08;;;;;;;16.14;100.00;101546.84;5058351;28;20417;-75
2022/08/09 00:25:30;;;;;;;6.57;2.65;;;;;;;15.82;100.00;101492.91;5073589;28;20032;-74
2022/08/09 00:27:55;;;;;;;3.65;2.30;;;;;;;16.09;100.00;101537.41;5085063;28;20394;-75
2022/08/09 00:30:21;;;;;;;6.40;2.67;;;;;;;16.12;100.00;101554.00;5080507;28;20115;-76
2022/08/09 00:32:47;;;;;;;4.97;2.47;;;;;;;15.89;100.00;101519.94;5095175;28;20028;-76
2022/08/09 00:35:12;;;;;;;6.20;2.90;;;;;;;16.06;100.00;101543.75;5093712;28;20117;-76
2022/08/09 00:37:38;;;;;;;4.68;2.53;;;;;;;15.97;100.00;101525.69;5081378;28;20065;-76
2022/08/09 00:40:04;;;;;;;3.67;2.22;;;;;;;15.77;100.00;101504.72;5076960;28;20032;-76
2022/08/09 00:42:29;;;;;;;3.85;2.10;;;;;;;15.94;100.00;101531.19;5094729;28;20028;-77
2022/08/09 00:44:54;;;;;;;4.90;2.70;;;;;;;15.96;100.00;101537.25;5093400;28;20540;-76
2022/08/09 00:47:21;;;;;;;3.90;2.33;;;;;;;15.94;100.00;101533.81;5080678;28;20062;-76
2022/08/09 00:49:47;;;;;;;4.50;2.63;;;;;;;16.02;100.00;101558.09;5086318;28;20032;-77
2022/08/09 00:52:12;;;;;;;4.53;2.72;;;;;;;15.79;100.00;101516.94;5104155;28;20123;-76
2022/08/09 00:54:38;;;;;;;5.90;2.88;;;;;;;15.90;100.00;101539.38;5077800;28;20043;-73
2022/08/09 00:57:04;;;;;;;4.53;2.47;;;;;;;15.81;100.00;101532.78;5083891;28;20090;-74
2022/08/09 00:59:29;;;;;;;6.57;2.75;;;;;;;15.94;100.00;101554.16;5085975;28;20028;-74
2022/08/09 01:01:55;;;;;;;4.45;2.47;;;;;;;15.79;100.00;101524.03;5086027;28;20029;-74
2022/08/09 01:04:37;;;;;;;6.70;3.08;;;;;;;15.79;100.00;101530.19;5058226;28;20040;-74
2022/08/09 01:07:22;;;;;;;5.43;3.00;;;;;;;15.95;100.00;101547.94;5068803;28;20024;-72
2022/08/09 01:09:52;;;;;;;5.20;2.40;;;;;;;15.84;100.00;101537.91;5076254;28;20048;-72
2022/08/09 01:12:30;;;;;;;7.15;3.28;;;;;;;15.91;100.00;101555.19;5068768;28;20029;-76
2022/08/09 01:15:02;;;;;;;5.57;2.40;;;;;;;15.76;100.00;101529.50;5075639;28;20039;-75
2022/08/09 01:17:37;;;;;;;8.43;3.17;;;;;;;15.73;100.00;101529.66;5045643;28;20039;-76
2022/08/09 01:20:05;;;;;;;7.88;3.55;;;;;;;15.81;100.00;101556.63;5091504;28;20094;-74
2022/08/09 01:22:37;;;;;;;6.05;3.17;;;;;;;15.73;100.00;101548.22;5109930;28;20027;-75
2022/08/09 01:25:02;;;;;;;5.13;3.03;;;;;;;15.70;100.00;101548.38;5094195;28;20039;-77
2022/08/09 01:27:28;;;;;;;9.73;3.33;;;;;;;15.65;100.00;101550.41;5089338;28;20028;-78
2022/08/09 01:29:59;;;;;;;5.13;2.60;;;;;;;15.66;100.00;101549.47;5078350;28;20032;-76
2022/08/09 01:32:45;;;;;;;8.52;2.95;;;;;;;15.62;100.00;101550.56;5083153;28;20024;-75
2022/08/09 01:35:41;;;;;;;5.97;3.00;;;;;;;15.56;100.00;101542.94;5079393;28;20521;-78
2022/08/09 01:38:09;;;;;;;4.90;3.38;;;;;;;15.28;100.00;101503.75;5057303;28;20024;-79
2022/08/09 01:40:35;;;;;;;8.00;3.40;;;;;;;15.18;100.00;101511.34;5058074;28;20028;-79
2022/08/09 01:43:02;;;;;;;6.78;3.70;;;;;;;15.37;100.00;101527.13;5058026;28;20070;-79
2022/08/09 01:45:28;;;;;;;6.50;3.33;;;;;;;15.38;100.00;101549.19;5053450;28;20028;-80
2022/08/09 01:47:55;;;;;;;6.40;3.78;;;;;;;15.13;100.00;101513.38;5054417;28;20055;-79
2022/08/09 01:50:22;;;;;;;7.50;3.58;;;;;;;15.25;100.00;101544.50;5065019;28;20495;-77
2022/08/09 01:52:49;;;;;;;7.22;3.40;;;;;;;15.28;100.00;101544.34;5057481;28;20032;-78
2022/08/09 01:55:14;;;;;;;7.00;3.38;;;;;;;15.18;100.00;101526.34;5075063;28;20028;-79
2022/08/09 01:57:42;;;;;;;6.95;3.53;;;;;;;15.16;100.00;101534.41;5050541;28;20892;-78
2022/08/09 02:00:09;;;;;;;7.43;3.55;;;;;;;15.13;100.00;101523.97;5015789;28;20016;-76
2022/08/09 02:02:40;;;;;;;5.82;3.65;;;;;;;15.25;100.00;101547.16;5062627;28;20103;-78
2022/08/09 02:05:09;;;;;;;5.97;3.63;;;;;;;15.17;100.00;101525.53;5109129;28;20039;-77
2022/08/09 02:07:48;;;;;;;7.57;3.83;;;;;;;15.05;100.00;101519.97;5073339;28;20161;-79
2022/08/09 02:10:20;;;;;;;6.88;3.75;;;;;;;14.91;100.00;101502.16;5067191;28;20031;-79
2022/08/09 02:12:46;;;;;;;7.80;3.63;;;;;;;14.67;100.00;101461.03;5052099;28;20024;-75
2022/08/09 02:15:13;;;;;;;8.40;4.18;;;;;;;15.08;100.00;101530.41;5062661;28;20073;-79
2022/08/09 02:17:40;;;;;;;5.38;3.45;;;;;;;15.13;100.00;101542.50;5062424;28;20091;-78
2022/08/09 02:20:06;;;;;;;6.40;3.83;;;;;;;14.96;100.00;101516.00;5071448;28;20035;-77
2022/08/09 02:22:38;;;;;;;6.15;3.53;;;;;;;15.18;100.00;101558.13;5073512;28;20040;-77
2022/08/09 02:25:10;;;;;;;10.55;4.47;;;;;;;14.99;100.00;101536.16;5086886;28;20374;-77
2022/08/09 02:27:38;;;;;;;4.72;3.33;;;;;;;14.96;100.00;101523.09;5064124;28;20482;-77
2022/08/09 02:30:04;;;;;;;5.82;3.17;;;;;;;15.12;100.00;101558.44;5057184;28;20031;-77
2022/08/09 02:32:32;;;;;;;5.10;3.35;;;;;;;14.96;100.00;101529.25;5071950;28;20467;-78
2022/08/09 02:35:01;;;;;;;6.47;4.07;;;;;;;15.07;100.00;101550.72;5058201;28;20039;-77
2022/08/09 02:37:29;;;;;;;5.00;3.78;;;;;;;15.05;100.00;101559.69;5096877;28;20028;-78
2022/08/09 02:39:56;;;;;;;9.32;4.68;;;;;;;15.01;100.00;101544.88;5066417;28;20024;-78
2022/08/09 02:42:36;;;;;;;8.32;3.90;;;;;;;14.91;100.00;101539.19;5054354;28;20033;-78
2022/08/09 02:45:05;;;;;;;6.90;4.10;;;;;;;15.01;100.00;101558.13;5073649;28;20482;-79
2022/08/09 02:47:32;;;;;;;6.68;4.50;;;;;;;14.73;100.00;101509.22;5060163;28;20447;-79
2022/08/09 02:50:08;;;;;;;9.43;4.80;;;;;;;14.88;100.00;101536.72;5073461;28;20032;-77
2022/08/09 02:52:38;;;;;;;8.70;4.75;;;;;;;14.92;100.00;101551.50;5094157;28;20068;-78
2022/08/09 02:55:05;;;;;;;8.02;5.68;;;;;;;14.61;100.00;101498.38;5069653;28;20048;-79
2022/08/09 02:57:31;;;;;;;7.88;4.35;;;;;;;14.63;100.00;101510.59;5051155;28;20024;-80
2022/08/09 02:59:58;;;;;;;6.32;4.25;;;;;;;14.84;100.00;101543.94;5068485;28;20372;-79
2022/08/09 03:02:24;;;;;;;7.57;4.93;;;;;;;14.75;100.00;101527.66;5039612;28;20024;-79
2022/08/09 03:04:50;;;;;;;5.97;4.90;;;;;;;14.71;100.00;101531.38;5049631;28;20040;-78
2022/08/09 03:07:17;;;;;;;6.32;3.53;;;;;;;14.60;100.00;101515.22;5078331;28;20032;-80
2022/08/09 03:09:44;;;;;;;9.80;5.20;;;;;;;14.65;100.00;101529.03;5057287;28;20387;-79
2022/08/09 03:12:11;;;;;;;5.95;4.30;;;;;;;14.64;100.00;101522.03;5052578;28;20032;-80
2022/08/09 03:14:38;;;;;;;10.60;5.13;;;;;;;14.63;100.00;101522.97;5025466;28;20056;-79
2022/08/09 03:17:04;;;;;;;6.82;4.80;;;;;;;14.39;100.00;101492.44;5086621;28;20123;-79
2022/08/09 03:19:30;;;;;;;8.82;5.05;;;;;;;14.59;100.00;101524.06;5090430;28;20491;-78
2022/08/09 03:21:56;;;;;;;6.22;4.60;;;;;;;14.42;100.00;101493.16;5055904;28;20384;-78
2022/08/09 03:24:22;;;;;;;6.25;4.45;;;;;;;14.64;100.00;101524.69;5054039;28;20017;-76
2022/08/09 03:26:49;;;;;;;6.63;4.68;;;;;;;14.60;100.00;101513.38;5057380;28;20599;-76
2022/08/09 03:29:15;;;;;;;5.05;3.63;;;;;;;14.65;100.00;101523.75;5042792;28;20487;-76
2022/08/09 03:31:41;;;;;;;6.82;4.68;;;;;;;14.69;100.00;101534.13;5063871;28;20024;-77
2022/08/09 03:34:06;;;;;;;8.13;3.92;;;;;;;14.58;100.00;101519.69;5056084;28;20033;-78
2022/08/09 03:36:32;;;;;;;9.77;5.18;;;;;;;14.62;100.00;101526.56;5050019;28;20121;-78
2022/08/09 03:38:57;;;;;;;7.03;4.30;;;;;;;14.59;100.00;101526.72;5053236;28;20043;-77
2022/08/09 03:41:24;;;;;;;10.23;4.28;;;;;;;14.57;100.00;101523.25;5041110;28;20051;-77
2022/08/09 03:43:49;;;;;;;7.35;4.85;;;;;;;14.48;100.00;101518.44;5058548;28;20710;-78
2022/08/09 03:46:14;;;;;;;9.13;4.68;;;;;;;14.49;100.00;101525.44;5053656;28;20016;-77
2022/08/09 03:48:40;;;;;;;6.82;4.57;;;;;;;14.51;100.00;101542.06;5062467;28;20106;-78
2022/08/09 03:51:08;;;;;;;7.80;4.35;;;;;;;14.40;100.00;101525.91;5053725;28;20016;-78
2022/08/09 03:53:34;;;;;;;6.57;4.78;;;;;;;14.48;100.00;101544.88;5036610;28;20017;-78
2022/08/09 03:56:00;;;;;;;7.50;5.20;;;;;;;14.45;100.00;101545.03;5082952;28;20017;-79
2022/08/09 03:58:26;;;;;;;8.55;5.10;;;;;;;14.47;100.00;101559.88;5058017;28;20020;-78
2022/08/09 04:00:52;;;;;;;7.32;5.72;;;;;;;14.48;100.00;101555.44;5051734;28;20041;-77
2022/08/09 04:03:18;;;;;;;5.85;4.55;;;;;;;14.45;100.00;101555.59;5069913;28;20039;-77
2022/08/09 04:05:43;;;;;;;8.50;5.72;;;;;;;14.37;100.00;101557.75;5064055;28;20394;-77
2022/08/09 04:08:08;;;;;;;9.82;6.03;;;;;;;14.33;100.00;101551.69;5061147;28;20020;-77
2022/08/09 04:10:34;;;;;;;9.05;5.25;;;;;;;14.34;100.00;101564.03;5071619;28;20035;-77
2022/08/09 04:12:59;;;;;;;8.10;5.57;;;;;;;14.27;100.00;101547.56;5052956;28;20114;-77
2022/08/09 04:15:25;;;;;;;10.55;5.35;;;;;;;14.21;100.00;101536.44;5081593;28;20032;-77
2022/08/09 04:17:50;;;;;;;7.47;5.40;;;;;;;14.33;100.00;101568.47;5078311;28;20040;-76
2022/08/09 04:20:16;;;;;;;7.75;5.85;;;;;;;14.31;100.00;101578.22;5059908;28;20093;-75
2022/08/09 04:22:43;;;;;;;7.78;6.22;;;;;;;14.26;100.00;101567.00;5110963;28;20028;-76
2022/08/09 04:25:09;;;;;;;8.57;5.00;;;;;;;14.21;100.00;101557.59;5108858;28;20099;-76
2022/08/09 04:27:39;;;;;;;8.10;4.55;;;;;;;14.21;100.00;101553.16;5077261;28;20427;-76
2022/08/09 04:30:09;;;;;;;9.57;5.45;;;;;;;14.33;100.00;101580.78;5075121;28;20032;-75
2022/08/09 04:32:35;;;;;;;7.20;5.40;;;;;;;14.19;100.00;101552.34;5076948;28;20478;-75
2022/08/09 04:35:00;;;;;;;8.88;5.70;;;;;;;14.25;100.00;101567.94;5062520;28;20090;-76
2022/08/09 04:37:26;;;;;;;9.05;4.93;;;;;;;14.31;100.00;101580.88;5074577;28;20024;-76
2022/08/09 04:39:51;;;;;;;7.88;5.68;;;;;;;14.00;100.00;101535.63;5055100;28;20028;-76
2022/08/09 04:42:16;;;;;;;9.73;6.05;;;;;;;14.31;100.00;101580.88;5070815;28;20024;-76
2022/08/09 04:44:42;;;;;;;9.82;5.97;;;;;;;14.19;100.00;101556.81;5064812;28;20024;-75
2022/08/09 04:47:07;;;;;;;9.85;5.65;;;;;;;14.33;100.00;101573.75;5077668;28;20028;-76
2022/08/09 04:49:36;;;;;;;6.55;5.25;;;;;;;14.37;100.00;101582.41;5092900;28;20059;-76
2022/08/09 04:52:04;;;;;;;10.85;5.55;;;;;;;14.32;100.00;101565.88;5082424;28;20025;-75
2022/08/09 04:54:30;;;;;;;12.32;5.22;;;;;;;14.34;100.00;101553.47;5053953;28;20032;-75
2022/08/09 04:56:55;;;;;;;7.60;5.43;;;;;;;14.40;100.00;101570.84;5056244;28;20051;-76
2022/08/09 04:59:21;;;;;;;8.07;5.07;;;;;;;14.44;100.00;101575.91;5077080;28;20040;-76
2022/08/09 05:01:46;;;;;;;11.80;5.55;;;;;;;14.52;100.00;101575.53;5067969;28;20409;-75
2022/08/09 05:04:12;;;;;;;7.63;4.90;;;;;;;14.58;100.00;101584.03;5071151;28;20024;-76
2022/08/09 05:06:37;;;;;;;8.65;5.28;;;;;;;14.64;100.00;101577.59;5074826;28;20027;-75
2022/08/09 05:09:03;;;;;;;10.35;6.40;;;;;;;14.52;100.00;101557.88;5073430;28;20024;-75
2022/08/09 05:11:29;;;;;;;8.73;5.57;;;;;;;14.36;100.00;101519.03;5057092;28;20025;-75
2022/08/09 05:13:54;;;;;;;10.48;5.90;;;;;;;14.74;100.00;101576.22;5057621;28;20052;-75
2022/08/09 05:16:20;;;;;;;11.60;6.65;;;;;;;14.65;100.00;101564.31;5070388;28;20479;-76
2022/08/09 05:18:45;;;;;;;6.85;5.18;;;;;;;14.62;100.00;101553.00;5089416;28;20028;-76
2022/08/09 05:21:11;;;;;;;7.32;4.85;;;;;;;14.82;100.00;101576.72;5090036;28;20032;-75
2022/08/09 05:23:37;;;;;;;7.78;5.47;;;;;;;14.88;100.00;101568.47;5054601;28;20064;-75
2022/08/09 05:26:02;;;;;;;6.97;5.15;;;;;;;15.09;100.00;101585.06;5053436;28;20563;-76
2022/08/09 05:28:27;;;;;;;7.93;5.65;;;;;;;15.09;100.00;101571.84;5078986;28;20032;-76
2022/08/09 05:30:53;;;;;;;9.85;5.65;;;;;;;15.07;100.00;101569.25;5064767;28;20157;-75
2022/08/09 05:33:18;;;;;;;7.18;4.93;;;;;;;15.14;100.00;101577.78;5056606;28;20067;-76
2022/08/09 05:35:43;;;;;;;7.55;6.00;;;;;;;15.21;100.00;101573.84;5089589;28;20069;-76
2022/08/09 05:38:10;;;;;;;7.82;5.07;;;;;;;15.36;100.00;101594.28;5081691;28;20050;-75
2022/08/09 05:40:35;;;;;;;12.98;6.82;;;;;;;15.36;100.00;101583.69;5056254;28;20111;-75
2022/08/09 05:43:00;;;;;;;8.50;5.35;;;;;;;15.47;100.00;101604.34;5067011;28;20034;-75
2022/08/09 05:45:28;;;;;;;8.35;5.63;;;;;;;15.39;100.00;101574.72;5068779;28;20107;-76
2022/08/09 05:47:53;;;;;;;8.27;6.05;;;;;;;15.41;100.00;101580.81;5056300;28;20025;-75
2022/08/09 05:50:22;;;;;;;7.68;5.75;;;;;;;15.53;100.00;101596.09;5056504;28;20051;-75
2022/08/09 05:52:48;;;;;;;6.47;5.03;;;;;;;15.53;100.00;101588.16;5058617;28;20032;-75
2022/08/09 05:55:13;;;;;;;9.65;5.70;;;;;;;15.63;100.00;101595.56;5042480;28;20028;-76
2022/08/09 05:57:38;;;;;;;6.32;4.95;;;;;;;15.77;100.00;101610.72;5046261;28;20111;-75
2022/08/09 06:00:06;;;;;;;5.85;4.75;;;;;;;15.63;100.00;101573.50;5053889;28;20081;-75
2022/08/09 06:02:32;;;;;;;9.73;5.80;;;;;;;15.82;100.00;101596.28;5071666;28;20060;-76
2022/08/09 06:04:57;;;;;;;7.45;5.28;;;;;;;15.95;100.00;101607.13;5064561;28;20450;-76
2022/08/09 06:07:23;;;;;;;8.88;5.07;;;;;;;15.95;100.00;101593.88;5067722;28;20012;-76
2022/08/09 06:09:49;;;;;;;7.82;4.72;;;;;;;16.07;100.00;101602.94;5057644;28;20119;-77
2022/08/09 06:12:14;;;;;;;8.73;5.13;;;;;;;16.09;100.00;101586.00;5082338;28;20017;-77
2022/08/09 06:14:39;;;;;;;7.75;4.80;;;;;;;16.31;100.00;101602.50;5057597;28;20024;-76
2022/08/09 06:17:05;;;;;;;7.70;5.68;;;;;;;16.27;100.00;101582.38;5043882;28;20033;-75
2022/08/09 06:19:30;;;;;;;9.07;4.65;;;;;;;16.25;100.00;101580.75;5062197;28;20491;-76
2022/08/09 06:21:56;;;;;;;7.07;5.30;;;;;;;16.48;100.00;101598.91;5054153;28;20016;-76
2022/08/09 06:24:21;;;;;;;7.57;5.28;;;;;;;16.48;100.00;101592.75;5080163;28;20032;-76
2022/08/09 06:26:47;;;;;;;7.60;4.65;;;;;;;16.43;100.00;101582.38;5062488;28;20034;-76
2022/08/09 06:29:12;;;;;;;7.70;5.13;;;;;;;16.51;100.00;101574.00;5066434;28;20356;-75
2022/08/09 06:31:38;;;;;;;8.68;5.55;;;;;;;16.70;100.00;101598.56;5078680;28;20024;-76
2022/08/09 06:34:04;;;;;;;8.20;4.38;;;;;;;16.86;100.00;101620.69;5076825;28;20032;-76
2022/08/09 06:36:29;;;;;;;10.05;5.18;;;;;;;16.79;100.00;101603.38;5078315;28;20123;-76
2022/08/09 06:38:55;;;;;;;13.88;5.32;;;;;;;16.83;100.00;101596.97;5095902;28;21413;-76
2022/08/09 06:41:20;;;;;;;9.02;4.38;;;;;;;16.98;100.00;101609.34;5045226;28;20024;-76
2022/08/09 06:43:46;;;;;;;8.23;5.22;;;;;;;16.86;100.00;101583.50;5088945;28;20446;-76
2022/08/09 06:46:12;;;;;;;7.13;5.45;;;;;;;17.05;100.00;101615.16;5057202;28;20029;-77
2022/08/09 06:48:39;;;;;;;6.93;4.85;;;;;;;17.15;100.00;101619.88;5079806;28;20035;-76
2022/08/09 06:51:05;;;;;;;12.80;5.03;;;;;;;17.16;100.00;101610.97;5056173;28;20054;-78
2022/08/09 06:53:30;;;;;;;10.25;6.10;;;;;;;17.22;100.00;101613.25;5079553;28;20039;-79
2022/08/09 06:55:58;;;;;;;9.32;5.43;;;;;;;17.18;100.00;101595.78;5057225;28;20067;-77
2022/08/09 06:58:23;;;;;;;7.32;5.45;;;;;;;17.06;100.00;101569.94;5091989;28;20027;-77
2022/08/09 07:00:49;;;;;;;9.85;5.35;;;;;;;17.32;100.00;101602.94;5069601;28;20028;-77
2022/08/09 07:03:14;;;;;;;11.45;5.60;;;;;;;17.44;100.00;101612.00;5075879;28;20443;-76
2022/08/09 07:05:39;;;;;;;8.27;5.63;;;;;;;17.54;100.00;101627.28;5074244;28;20024;-77
2022/08/09 07:08:05;;;;;;;7.90;4.55;;;;;;;17.50;100.00;101604.53;5069051;28;20524;-76
2022/08/09 07:10:31;;;;;;;8.55;5.05;;;;;;;17.72;100.00;101622.72;5083362;28;20261;-77
2022/08/09 07:12:56;;;;;;;12.30;4.85;;;;;;;17.80;100.00;101623.13;5086758;28;20161;-76
2022/08/09 07:15:22;;;;;;;11.95;6.15;;;;;;;17.88;100.00;101615.50;5056135;28;20119;-76
2022/08/09 07:17:48;;;;;;;10.85;6.63;;;;;;;17.91;100.00;101615.34;5093536;28;20060;-75
2022/08/09 07:20:14;;;;;;;9.57;5.40;;;;;;;17.86;100.00;101598.81;5086013;28;20054;-75
2022/08/09 07:22:40;;;;;;;11.18;5.57;;;;;;;18.06;100.00;101616.19;5091783;28;20028;-75
2022/08/09 07:25:05;;;;;;;8.98;5.15;;;;;;;18.05;100.00;101610.00;5096677;28;20057;-75
2022/08/09 07:27:31;;;;;;;10.70;5.03;;;;;;;18.09;100.00;101614.19;5059629;28;20103;-77
2022/08/09 07:29:57;;;;;;;9.80;4.90;;;;;;;18.09;100.00;101600.03;5057753;28;20020;-76
2022/08/09 07:32:22;;;;;;;9.05;5.80;;;;;;;18.21;100.00;101615.25;5089000;28;20459;-77
2022/08/09 07:34:47;;;;;;;7.20;4.40;;;;;;;18.13;100.00;101580.28;5071496;28;20032;-76
2022/08/09 07:37:13;;;;;;;8.95;5.22;;;;;;;18.37;100.00;101616.84;5085731;28;20047;-77
2022/08/09 07:39:38;;;;;;;7.70;4.40;;;;;;;18.38;100.00;101618.53;5087101;28;20039;-76
2022/08/09 07:42:04;;;;;;;5.97;4.25;;;;;;;18.56;100.00;101634.34;5086663;28;20028;-76
2022/08/09 07:44:30;;;;;;;8.50;4.63;;;;;;;18.69;100.00;101635.28;5083619;28;20680;-76
2022/08/09 07:46:55;;;;;;;9.75;4.47;;;;;;;18.73;100.00;101631.44;5088314;28;20027;-76
2022/08/09 07:49:21;;;;;;;4.90;3.80;;;;;;;18.58;100.00;101581.88;5061803;28;20024;-77
2022/08/09 07:51:46;;;;;;;5.60;4.50;;;;;;;19.00;100.00;101642.97;5087641;28;20031;-77
2022/08/09 07:54:12;;;;;;;7.28;4.53;;;;;;;18.93;100.00;101604.38;5091021;28;20028;-76
2022/08/09 07:56:37;;;;;;;10.55;4.68;;;;;;;19.18;100.00;101625.78;5092941;28;20108;-76
2022/08/09 07:59:04;;;;;;;8.65;3.95;;;;;;;19.13;100.00;101603.91;5083902;28;20101;-76
2022/08/09 08:01:29;;;;;;;10.38;3.60;;;;;;;19.28;100.00;101613.56;5065041;28;20085;-78
2022/08/09 08:03:54;;;;;;;5.72;3.85;;;;;;;19.33;100.00;101599.94;5059180;28;20149;-75
2022/08/09 08:06:20;;;;;;;8.35;3.90;;;;;;;19.28;100.00;101583.38;5073694;28;20119;-76
2022/08/09 08:08:45;;;;;;;7.40;4.60;;;;;;;19.58;100.00;101617.81;5059351;28;20024;-77
2022/08/09 08:11:11;;;;;;;6.53;3.60;;;;;;;19.46;100.00;101584.84;5046886;28;20035;-76
2022/08/09 08:13:36;;;;;;;5.47;3.92;;;;;;;19.76;100.00;101620.09;5065941;28;20035;-76
2022/08/09 08:16:02;;;;;;;5.38;3.58;;;;;;;19.49;100.00;101565.13;5074899;28;20542;-77
2022/08/09 08:18:27;;;;;;;8.27;3.90;;;;;;;19.93;100.00;101621.59;5062375;28;20025;-76
2022/08/09 08:20:52;;;;;;;5.93;3.75;;;;;;;20.03;100.00;101616.44;5060699;28;20053;-75
2022/08/09 08:23:19;;;;;;;5.80;3.90;;;;;;;19.61;100.00;101542.94;5071813;28;20031;-77
2022/08/09 08:25:46;;;;;;;7.13;3.58;;;;;;;20.22;100.00;101636.41;5085378;28;20170;-78
2022/08/09 08:28:12;;;;;;;7.82;3.95;;;;;;;20.03;100.00;101593.28;5086233;28;20024;-76
2022/08/09 08:30:38;;;;;;;11.77;4.80;;;;;;;20.29;100.00;101627.03;5076510;28;20037;-75
2022/08/09 08:33:03;;;;;;;9.15;4.20;;;;;;;20.42;100.00;101626.13;5080483;28;20479;-76
2022/08/09 08:35:29;;;;;;;9.13;4.00;;;;;;;20.47;100.00;101632.88;5059984;28;20489;-76
2022/08/09 08:37:55;;;;;;;10.23;3.55;;;;;;;20.63;100.00;101628.13;5087117;28;20029;-76
2022/08/09 08:40:21;;;;;;;5.53;3.20;;;;;;;20.75;100.00;101634.41;5047817;28;20054;-76
2022/08/09 08:42:46;;;;;;;5.03;3.08;;;;;;;20.85;100.00;101654.16;5017255;28;20027;-75
2022/08/09 08:45:12;;;;;;;6.63;2.63;;;;;;;20.86;100.00;101643.34;5049251;28;20024;-79
2022/08/09 08:47:39;;;;;;;4.30;2.80;;;;;;;20.69;100.00;101611.66;5049479;28;20039;-76
2022/08/09 08:50:05;;;;;;;7.88;3.90;;;;;;;20.86;100.00;101626.44;5068224;28;20777;-78
2022/08/09 08:52:31;;;;;;;6.10;3.75;;;;;;;20.86;100.00;101621.09;5053229;28;20020;-76
2022/08/09 08:54:57;;;;;;;8.98;3.35;;;;;;;21.12;100.00;101652.16;5055858;28;20028;-76
2022/08/09 08:57:24;;;;;;;7.53;3.40;;;;;;;21.25;100.00;101658.31;5083656;28;20066;-76
2022/08/09 08:59:51;;;;;;;18.50;3.75;;;;;;;21.33;100.00;101653.22;5069261;28;20128;-79
2022/08/09 09:02:25;;;;;;;7.15;2.90;;;;;;;21.41;100.00;101655.31;5103523;28;20031;-77
2022/08/09 09:04:59;;;;;;;7.65;3.90;;;;;;;21.31;100.00;101644.47;5095876;28;20024;-77
2022/08/09 09:07:25;;;;;;;6.05;3.45;;;;;;;21.50;100.00;101659.97;5061539;28;20028;-75
2022/08/09 09:09:52;;;;;;;5.10;3.25;;;;;;;21.35;100.00;101624.56;5056176;28;20322;-77
2022/08/09 09:12:20;;;;;;;7.00;3.90;;;;;;;21.58;100.00;101654.03;5055046;28;20024;-75
2022/08/09 09:14:47;;;;;;;11.48;2.90;;;;;;;21.57;100.00;101641.63;5061509;28;20033;-77
2022/08/09 09:17:13;;;;;;;5.03;3.17;;;;;;;21.67;100.00;101629.25;5065639;28;20017;-79
2022/08/09 09:19:39;;;;;;;8.85;3.92;;;;;;;21.80;100.00;101652.28;5050048;28;20034;-75
2022/08/09 09:22:10;;;;;;;5.00;2.85;;;;;;;21.84;100.00;101658.25;5077442;28;20111;-78
2022/08/09 09:24:44;;;;;;;4.75;2.33;;;;;;;21.94;100.00;101658.41;5061653;28;20108;-76
2022/08/09 09:27:10;;;;;;;;;;;;;;;22.06;100.00;101663.69;5058991;28;20029;-78
2022/08/09 09:29:38;;;;;;;9.07;2.90;;;;;;;21.95;100.00;101630.69;5059273;28;19916;-77
2022/08/09 09:32:05;;;;;;;5.72;2.92;;;;;;;22.00;100.00;101632.03;5058400;28;20021;-76
2022/08/09 09:34:31;;;;;;;11.52;3.67;;;;;;;22.18;100.00;101657.34;5065840;28;20478;-79
2022/08/09 09:36:57;;;;;;;5.47;2.75;;;;;;;22.21;100.00;101669.66;5059943;28;20036;-77
2022/08/09 09:39:24;;;;;;;10.90;4.68;;;;;;;22.25;100.00;101669.28;5054148;28;20032;-78
2022/08/09 09:41:50;;;;;;;9.68;4.40;;;;;;;22.15;100.00;101651.38;5059185;28;20168;-77
2022/08/09 09:44:33;;;;;;;5.78;3.60;;;;;;;22.03;100.00;101625.59;5058423;28;20035;-78
2022/08/09 09:47:17;;;;;;;7.35;2.72;;;;;;;22.22;100.00;101648.13;5064317;28;20043;-79
2022/08/09 09:49:49;;;;;;;5.32;3.20;;;;;;;22.06;100.00;101623.53;5082025;28;20032;-79
2022/08/09 09:52:14;;;;;;;6.40;3.38;;;;;;;22.26;100.00;101638.88;5078456;28;20032;-80
2022/08/09 09:54:42;;;;;;;7.57;2.90;;;;;;;22.34;100.00;101641.78;5070162;28;20080;-80
2022/08/09 09:57:21;;;;;;;6.60;3.20;;;;;;;22.52;100.00;101646.63;5055145;28;20490;-80
2022/08/09 09:59:48;;;;;;;6.65;2.85;;;;;;;22.69;100.00;101652.38;5081412;28;20024;-78
2022/08/09 10:02:14;;;;;;;4.97;3.15;;;;;;;22.71;100.00;101644.22;5082923;28;20069;-77
2022/08/09 10:04:41;;;;;;;7.75;3.05;;;;;;;22.51;100.00;101596.72;5072841;28;20153;-80
2022/08/09 10:07:23;;;;;;;6.38;3.17;;;;;;;22.93;100.00;101665.63;5054315;28;20038;-79
2022/08/09 10:09:50;;;;;;;5.43;3.30;;;;;;;22.84;100.00;101634.22;5074086;28;20055;-79
2022/08/09 10:12:43;;;;;;;5.18;3.05;;;;;;;23.08;100.00;101669.75;5062821;28;20042;-75
2022/08/09 10:15:14;;;;;;;5.97;2.20;;;;;;;23.10;100.00;101651.69;5087345;28;20036;-80
2022/08/09 10:17:42;;;;;;;6.90;3.00;;;;;;;22.79;100.00;101593.50;5077443;28;20452;-75
2022/08/09 10:20:18;;;;;;;5.05;2.88;;;;;;;23.28;100.00;101660.91;5056844;28;20457;-77
2022/08/09 10:22:45;;;;;;;4.50;2.67;;;;;;;23.23;100.00;101663.09;5082931;28;20479;-78
2022/08/09 10:25:10;;;;;;;5.28;2.60;;;;;;;23.08;100.00;101637.56;5090868;28;20032;-76
2022/08/09 10:27:36;;;;;;;9.35;3.00;;;;;;;23.02;100.00;101627.31;5052876;28;20031;-77
2022/08/09 10:30:06;;;;;;;11.65;2.92;;;;;;;23.21;100.00;101656.16;5054382;28;20120;-76
2022/08/09 10:32:33;;;;;;;6.32;2.70;;;;;;;23.32;100.00;101640.03;5061075;28;20673;-76
2022/08/09 10:34:58;;;;;;;8.25;3.03;;;;;;;23.47;100.00;101637.91;5092113;28;20118;-77
2022/08/09 10:37:24;;;;;;;8.52;2.88;;;;;;;23.74;99.49;101652.53;5067439;28;20031;-78
2022/08/09 10:39:50;;;;;;;8.05;2.55;;;;;;;23.60;98.95;101626.00;5075115;28;20078;-77
2022/08/09 10:42:17;;;;;;;5.55;2.75;;;;;;;23.82;99.15;101638.47;5073146;28;20047;-75
2022/08/09 10:44:44;;;;;;;4.30;2.42;;;;;;;24.04;94.99;101654.41;5085891;28;20464;-77
2022/08/09 10:47:34;;;;;;;10.68;3.30;;;;;;;23.86;93.35;101629.16;5062404;28;20051;-79
2022/08/09 10:50:17;;;;;;;6.78;2.72;;;;;;;23.81;95.66;101632.22;5074199;28;20036;-79
2022/08/09 10:52:58;;;;;;;14.32;2.65;;;;;;;24.08;95.22;101639.72;5081846;28;20498;-79
2022/08/09 10:55:26;;;;;;;4.40;2.05;;;;;;;24.23;94.69;101643.78;5081472;28;20028;-79
2022/08/09 10:57:52;;;;;;;4.93;2.55;;;;;;;24.35;92.09;101637.34;5053357;28;20028;-75
2022/08/09 11:00:30;;;;;;;5.63;2.58;;;;;;;24.47;91.32;101637.25;5102779;28;20103;-75
2022/08/09 11:02:56;;;;;;;4.35;2.05;;;;;;;24.23;92.09;101589.22;5083427;28;20024;-77
2022/08/09 11:05:22;;;;;;;6.28;2.95;;;;;;;24.49;91.59;101617.31;5048687;28;20028;-80
2022/08/09 11:07:48;;;;;;;4.10;2.38;;;;;;;24.33;89.84;101572.13;5067078;28;20088;-75
2022/08/09 11:10:34;;;;;;;5.25;2.88;;;;;;;24.55;86.57;101605.16;5072734;28;20024;-80
2022/08/09 11:13:13;;;;;;;3.85;2.22;;;;;;;24.84;88.42;101627.63;5059663;28;20032;-78
2022/08/09 11:15:39;;;;;;;4.68;2.25;;;;;;;24.99;87.25;101631.59;5083924;28;20032;-79
2022/08/09 11:18:04;;;;;;;6.63;3.20;;;;;;;25.09;87.28;101621.69;5060503;28;20027;-79